Latest Conditions
At L.F.Wade Int. Airport
Recorded at 4:55 pm
Showers
Temp.: 
24°C/75°F
Humidity: 
94%
Wind: 
SSW 6KT
or 7mph
UV Index: 
0
Island Observations
 
Observations
Sunday, November 17, 2019

Observations are in local time and taken at least once an hour, or upon the start and end of specified events such as showers and thunderstorms.

Time Sky / Weather Wind Speed/Gusts Temp. R.H. Pressure
     knots (mph)  °C (°F)  %  mb / "Hg
 16:55 Overcast Showers SSW 6/0 (7/0) 24(75) 94 1008 / 29.76
 16:25 Overcast Showers SSW 10/0 (12/0) 24(75) 92 1008 / 29.76
 15:55 Overcast Showers S 15/0 (17/0) 24(75) 88 1008 / 29.76
 15:38 Overcast Showers SSW 14/0 (16/0) 24(75) 90 1008 / 29.76
 15:32 Overcast Showers S 13/0 (15/0) 24(75) 91 1008 / 29.76
 15:15 Overcast Showers S 13/0 (15/0) 24(76) 87 1008 / 29.76
 14:55 Overcast Showers S 14/0 (16/0) 24(75) 84 1008 / 29.76
 14:37 Overcast Showers SSW 17/0 (20/0) 24(75) 87 1008 / 29.76
 14:10 Overcast Showers S 13/0 (15/0) 24(76) 90 1008 / 29.76
 13:55 Overcast Showers S 13/0 (15/0) 24(76) 89 1008 / 29.76
 12:55 Overcast Showers SSE 15/0 (17/0) 24(76) 89 1008 / 29.76
 12:39 Overcast Showers S 16/0 (18/0) 24(76) 90 1008 / 29.77
 12:26 Overcast Showers S 14/0 (16/0) 24(76) 90 1008 / 29.77
 11:55 Overcast Showers SSE 13/0 (15/0) 24(76) 89 1009 / 29.79
 11:27 Overcast Showers S 13/0 (15/0) 24(76) 89 1009 / 29.81
 11:01 Overcast Showers S 14/0 (16/0) 24(75) 89 1010 / 29.82
 10:55 Overcast Showers SSE 12/0 (14/0) 24(75) 90 1010 / 29.83
 09:55 Overcast Showers SSE 13/0 (15/0) 24(75) 88 1010 / 29.83
 08:55 Mostly Cloudy  SSE 15/0 (17/0) 24(76) 86 1010 / 29.83
 07:55 Mostly Cloudy  SSE 15/0 (17/0) 24(75) 87 1010 / 29.82
 06:55 Mostly Cloudy  SSE 14/0 (16/0) 24(75) 88 1010 / 29.82
 05:55 Mostly Cloudy  SSE 15/0 (17/0) 24(75) 88 1009 / 29.81
 04:55 Mostly Cloudy  SSE 13/0 (15/0) 24(75) 87 1009 / 29.81
 03:55 Mostly Cloudy  SSE 15/0 (17/0) 24(75) 88 1009 / 29.81
 02:55 Overcast  SSE 14/0 (16/0) 24(75) 89 1010 / 29.82
 01:55 Overcast  SSE 14/0 (16/0) 24(75) 89 1010 / 29.84
 01:10 Overcast Showers S 15/0 (17/0) 24(74) 90 1011 / 29.85
 00:55 Overcast Showers SSE 16/0 (18/0) 24(74) 90 1011 / 29.85
 00:28 Overcast  SSE 16/0 (18/0) 24(75) 89 1011 / 29.86
 00:15 Overcast  SSE 15/0 (17/0) 24(75) 89 1011 / 29.86
 23:55 Overcast  SSE 15/0 (17/0) 24(75) 88 1011 / 29.86
 22:55 Overcast  SSE 15/0 (17/0) 24(75) 89 1012 / 29.87
 22:19 Overcast  SSE 17/0 (20/0) 24(75) 89 1012 / 29.88
 21:55 Overcast Rain SE 16/0 (18/0) 24(75) 89 1012 / 29.88
 21:22 Overcast Rain SSE 15/0 (17/0) 24(75) 90 1012 / 29.89
 20:55 Overcast  SE 13/0 (15/0) 24(75) 91 1012 / 29.89
 19:55 Overcast Rain SSE 12/0 (14/0) 24(74) 91 1013 / 29.91
 19:38 Overcast Rain SSE 12/0 (14/0) 24(75) 88 1013 / 29.91
 19:23 Overcast  SSE 11/0 (13/0) 24(75) 89 1013 / 29.91
 18:55 Overcast Showers SSE 11/0 (13/0) 24(75) 89 1013 / 29.91
 18:25 Overcast  SSE 11/0 (13/0) 24(75) 87 1013 / 29.91
 17:55 Overcast  SSE 9/0 (10/0) 24(75) 88 1013 / 29.91
 16:55 Overcast  SSE 11/0 (13/0) 24(75) 86 1013 / 29.90
 16:08 Overcast  SSE 11/0 (13/0) 24(75) 86 1013 / 29.90
 15:55 Overcast  SSE 11/0 (13/0) 24(75) 86 1012 / 29.89
 14:55 Mostly Cloudy  SSE 10/0 (12/0) 25(77) 82 1013 / 29.90
 13:55 Mostly Cloudy  SSE 10/0 (12/0) 25(77) 81 1013 / 29.91
 12:55 Mostly Cloudy  SSE 9/0 (10/0) 25(77) 81 1014 / 29.94
 11:55 Overcast  SSE 9/0 (10/0) 24(75) 83 1015 / 29.96
 10:55 Mostly Cloudy  SSE 9/0 (10/0) 24(76) 82 1016 / 29.99
 09:55 Mostly Cloudy  SSE 9/0 (10/0) 24(76) 83 1016 / 30.00
 08:55 Mostly Cloudy  SSE 8/0 (9/0) 24(75) 85 1016 / 29.99
 07:55 Mostly Cloudy  SSE 8/0 (9/0) 24(75) 86 1016 / 29.99
 06:55 Mostly Cloudy Showers SSE 8/0 (9/0) 23(74) 88 1015 / 29.98
 05:55 Mostly Cloudy  SSE 9/0 (10/0) 23(74) 90 1015 / 29.97
 04:55 Overcast  SSE 5/0 (6/0) 23(73) 92 1015 / 29.97
 03:55 Mostly Cloudy  SE 6/0 (7/0) 23(73) 92 1015 / 29.98
 02:55 Mostly Cloudy  SE 5/0 (6/0) 22(72) 92 1016 / 30.00
 01:55 Mostly Cloudy  SE 5/0 (6/0) 22(72) 92 1017 / 30.02
 00:55 Mostly Cloudy  SE 7/0 (8/0) 22(72) 91 1017 / 30.03
 23:55 Mostly Cloudy  SE 5/0 (6/0) 22(72) 89 1017 / 30.04
 22:55 Mostly Cloudy  SE 5/0 (6/0) 21(70) 93 1018 / 30.06
 21:55 Mostly Cloudy  SE 4/0 (5/0) 21(69) 94 1018 / 30.07
 20:55 Mostly Cloudy  VRB 1/0 (1/0) 21(69) 94 1019 / 30.08
 19:55 Mostly Cloudy  Calm 21(69) 94 1019 / 30.08
 18:55 Mostly Cloudy  E 1/0 (1/0) 22(71) 87 1019 / 30.09
 17:55 Mostly Cloudy  Calm 22(71) 87 1019 / 30.08
 17:04 Mostly Cloudy  VRB 2/0 (2/0) 23(73) 83 1019 / 30.08
 16:55 Mostly Cloudy  SSE 3/0 (3/0) 23(74) 83 1018 / 30.07
 15:55 Mostly Cloudy  ESE 3/0 (3/0) 23(74) 82 1018 / 30.07
 14:55 Mostly Cloudy  ESE 6/0 (7/0) 24(75) 78 1018 / 30.07
 13:55 Mostly Cloudy  SE 5/0 (6/0) 24(75) 77 1018 / 30.07
 12:55 Mostly Cloudy  ENE 5/0 (6/0) 24(74) 81 1019 / 30.09
 12:09 Mostly Cloudy Showers ENE 4/0 (5/0) 22(72) 92 1020 / 30.12
 11:55 Mostly Cloudy Showers NE 7/0 (8/0) 23(73) 85 1020 / 30.13
 11:42 Mostly Cloudy Showers ENE 7/0 (8/0) 23(74) 83 1020 / 30.13
 11:26 Mostly Cloudy Showers ENE 7/0 (8/0) 23(73) 84 1021 / 30.14
 10:55 Mostly Cloudy Showers ENE 8/0 (9/0) 24(75) 85 1021 / 30.16
 10:23 Mostly Cloudy Showers ENE 6/0 (7/0) 22(71) 90 1022 / 30.17
 10:12 Mostly Cloudy Showers E 9/0 (10/0) 23(73) 84 1022 / 30.17
 09:55 Mostly Cloudy Showers ENE 10/0 (12/0) 23(73) 85 1022 / 30.17
 08:55 Mostly Cloudy Showers ENE 12/0 (14/0) 22(71) 88 1022 / 30.17
 08:34 Overcast Showers ENE 10/0 (12/0) 21(71) 91 1022 / 30.17
 08:06 Overcast Showers ENE 9/0 (10/0) 21(70) 92 1022 / 30.18
 07:55 Overcast Showers ENE 10/0 (12/0) 21(70) 94 1022 / 30.18
 07:39 Overcast Showers ENE 9/0 (10/0) 21(69) 93 1022 / 30.17
 07:21 Mostly Cloudy Showers NE 8/0 (9/0) 21(70) 91 1022 / 30.17
 06:55 Overcast Showers E 9/0 (10/0) 21(70) 88 1022 / 30.17
 06:26 Overcast Showers E 11/0 (13/0) 21(70) 86 1021 / 30.16
 06:02 Mostly Cloudy Showers E 11/0 (13/0) 21(70) 86 1021 / 30.16
 05:55 Mostly Cloudy Showers E 10/0 (12/0) 21(71) 86 1021 / 30.15
 05:44 Mostly Cloudy Showers E 10/0 (12/0) 21(70) 85 1021 / 30.15
 04:55 Mostly Cloudy  E 12/0 (14/0) 21(70) 87 1021 / 30.15
 03:55 Mostly Cloudy  E 11/0 (13/0) 21(69) 86 1021 / 30.16
 02:55 Mostly Cloudy Showers E 12/0 (14/0) 21(69) 85 1022 / 30.17
 02:43 Mostly Cloudy Showers E 10/0 (12/0) 20(68) 90 1022 / 30.18
 02:33 Mostly Cloudy Showers ESE 14/0 (16/0) 19(67) 92 1022 / 30.18
 02:17 Mostly Cloudy Showers ENE 10/0 (12/0) 20(69) 87 1022 / 30.19
 01:55 Overcast Showers NNE 8/0 (9/0) 20(67) 90 1023 / 30.20
 01:09 Mostly Cloudy Showers NE 8/0 (9/0) 20(68) 93 1023 / 30.21
Island AWOS